Time;durP1;ratioP1;P1;durP2;ratioP2;P2;SDS_P1;SDS_P2;PMS_P1;PMS_P2;Temp;Humidity;BMP_temperature;BMP_pressure;BME280_temperature;BME280_humidity;BME280_pressure;Samples;Min_cycle;Max_cycle;Signal;HPM_P1;HPM_P2
2021/04/22 00:00:48;;;;;;;14.38;7.45;;;;;;;20.89;57.19;100972.49;1661625;84;22379;-59
2021/04/22 00:03:16;;;;;;;12.45;7.25;;;;;;;20.86;57.19;100969.80;1662945;84;21577;-59
2021/04/22 00:05:43;;;;;;;11.60;6.95;;;;;;;20.86;57.20;100971.75;1660752;84;21202;-59
2021/04/22 00:08:11;;;;;;;11.40;7.35;;;;;;;20.82;57.17;100972.95;1656849;84;21224;-60
2021/04/22 00:10:45;;;;;;;13.15;7.55;;;;;;;20.81;57.18;100972.69;1634158;84;21190;-59
2021/04/22 00:13:14;;;;;;;13.68;7.35;;;;;;;20.78;57.18;100973.33;1660529;84;21194;-58
2021/04/22 00:15:40;;;;;;;14.23;8.00;;;;;;;20.77;57.20;100971.69;1662324;84;21181;-59
2021/04/22 00:18:08;;;;;;;10.70;7.10;;;;;;;20.78;57.21;100971.95;1658006;84;21298;-58
2021/04/22 00:20:35;;;;;;;10.90;7.10;;;;;;;20.79;57.20;100972.17;1660951;84;21240;-59
2021/04/22 00:23:06;;;;;;;11.40;6.90;;;;;;;20.80;57.19;100968.28;1667106;84;21240;-59
2021/04/22 00:25:33;;;;;;;;;;;;;;;20.80;57.14;100972.44;1668643;84;21675;-59
2021/04/22 00:28:06;;;;;;;13.55;6.92;;;;;;;20.80;57.13;100968.84;1684471;83;20376;-59
2021/04/22 00:30:33;;;;;;;11.97;6.87;;;;;;;20.77;57.13;100968.92;1696252;83;21219;-60
2021/04/22 00:33:03;;;;;;;10.25;6.80;;;;;;;20.75;57.11;100970.38;1693215;83;21230;-58
2021/04/22 00:35:29;;;;;;;12.47;6.90;;;;;;;20.74;57.10;100975.09;1694116;83;21236;-59
2021/04/22 00:37:56;;;;;;;9.03;6.47;;;;;;;20.73;57.12;100967.10;1691113;84;21605;-59
2021/04/22 00:40:25;;;;;;;10.53;6.15;;;;;;;20.70;57.15;100959.45;1696586;83;21216;-59
2021/04/22 00:42:51;;;;;;;10.40;6.62;;;;;;;20.71;57.20;100970.17;1694415;83;21627;-59
2021/04/22 00:45:18;;;;;;;10.45;6.42;;;;;;;20.71;57.22;100970.77;1699543;83;21586;-58
2021/04/22 00:47:45;;;;;;;10.63;6.45;;;;;;;20.72;57.23;100969.05;1696600;83;21221;-59
2021/04/22 00:50:21;;;;;;;8.50;5.58;;;;;;;20.74;57.21;100966.80;1691113;83;21176;-59
2021/04/22 00:52:48;;;;;;;8.33;5.58;;;;;;;20.74;57.18;100965.41;1690557;83;21201;-59
2021/04/22 00:55:15;;;;;;;9.95;6.00;;;;;;;20.72;57.18;100969.05;1705765;82;21304;-59
2021/04/22 00:57:41;;;;;;;9.48;6.28;;;;;;;20.71;57.18;100971.55;1715653;82;21220;-59
2021/04/22 01:00:09;;;;;;;7.58;5.22;;;;;;;20.70;57.22;100970.50;1714432;82;21170;-59
2021/04/22 01:02:37;;;;;;;9.63;5.58;;;;;;;20.67;57.24;100971.93;1711210;82;21217;-59
2021/04/22 01:05:09;;;;;;;8.43;5.00;;;;;;;20.65;57.26;100975.59;1711602;82;21245;-59
2021/04/22 01:07:42;;;;;;;9.00;5.58;;;;;;;20.64;57.31;100968.98;1713375;82;21226;-59
2021/04/22 01:10:11;;;;;;;8.30;5.67;;;;;;;20.64;57.33;100967.03;1700028;82;21203;-59
2021/04/22 01:12:37;;;;;;;9.58;6.10;;;;;;;20.67;57.37;100972.49;1688950;83;21219;-59
2021/04/22 01:15:10;;;;;;;10.23;5.28;;;;;;;20.68;57.35;100968.60;1644057;84;22045;-59
2021/04/22 01:17:36;;;;;;;9.25;5.15;;;;;;;20.70;57.32;100970.50;1689875;83;21200;-59
2021/04/22 01:20:22;;;;;;;7.75;5.28;;;;;;;20.69;57.31;100966.09;1700011;82;21174;-59
2021/04/22 01:22:50;;;;;;;8.25;5.42;;;;;;;20.68;57.30;100969.98;1675487;84;21224;-58
2021/04/22 01:25:21;;;;;;;8.20;5.25;;;;;;;20.65;57.31;100967.30;1670363;84;21519;-59
2021/04/22 01:27:47;;;;;;;8.05;5.17;;;;;;;20.63;57.35;100972.87;1658166;84;21240;-59
2021/04/22 01:30:18;;;;;;;7.90;5.90;;;;;;;20.61;57.36;100968.23;1659951;84;21209;-59
2021/04/22 01:32:44;;;;;;;;;;;;;;;20.59;57.39;100971.86;1642584;86;21618;-59
2021/04/22 01:35:14;;;;;;;7.05;4.87;;;;;;;20.61;57.41;100973.77;1650991;85;20256;-59
2021/04/22 01:37:41;;;;;;;8.33;4.85;;;;;;;20.63;57.48;100979.22;1662563;84;21231;-59
2021/04/22 01:40:10;;;;;;;8.53;4.90;;;;;;;20.68;57.59;100979.09;1669992;84;21148;-59
2021/04/22 01:42:36;;;;;;;7.17;5.08;;;;;;;20.72;57.66;100973.19;1659277;84;21206;-59
2021/04/22 01:45:04;;;;;;;9.85;5.50;;;;;;;20.75;57.70;100976.70;1670295;84;22157;-59
2021/04/22 01:47:30;;;;;;;9.38;5.58;;;;;;;20.76;57.67;100976.96;1637805;86;21180;-58
2021/04/22 01:49:57;;;;;;;7.47;5.28;;;;;;;20.76;57.62;100971.43;1660492;84;21273;-59
2021/04/22 01:52:25;;;;;;;8.35;5.37;;;;;;;20.76;57.54;100976.14;1646660;86;21215;-59
2021/04/22 01:54:51;;;;;;;8.20;5.37;;;;;;;20.75;57.51;100973.15;1676172;85;21203;-59
2021/04/22 01:57:18;;;;;;;7.45;5.37;;;;;;;20.73;57.47;100979.55;1663671;84;21243;-59
2021/04/22 01:59:45;;;;;;;8.98;4.92;;;;;;;20.71;57.45;100979.84;1661809;85;21234;-59
2021/04/22 02:02:12;;;;;;;8.50;5.05;;;;;;;20.68;57.44;100974.95;1658173;85;21887;-59
2021/04/22 02:04:39;;;;;;;7.35;4.92;;;;;;;20.70;57.43;100981.00;1663109;84;21674;-59
2021/04/22 02:07:06;;;;;;;7.95;5.10;;;;;;;20.71;57.36;100974.91;1655374;84;21135;-59
2021/04/22 02:09:33;;;;;;;8.88;5.40;;;;;;;20.71;57.34;100977.08;1660162;84;21228;-59
2021/04/22 02:12:00;;;;;;;8.90;5.25;;;;;;;20.71;57.32;100979.84;1661390;84;21601;-59
2021/04/22 02:14:27;;;;;;;7.25;4.72;;;;;;;20.69;57.27;100979.36;1642435;86;21181;-59
2021/04/22 02:16:53;;;;;;;7.58;4.80;;;;;;;20.66;57.25;100975.03;1645172;86;21174;-59
2021/04/22 02:19:21;;;;;;;8.10;4.83;;;;;;;20.65;57.24;100976.16;1661325;85;21228;-59
2021/04/22 02:21:47;;;;;;;7.40;4.70;;;;;;;20.62;57.25;100983.70;1635322;85;21632;-59
2021/04/22 02:24:16;;;;;;;8.10;4.85;;;;;;;20.59;57.25;100988.45;1641270;86;21159;-59
2021/04/22 02:26:43;;;;;;;7.75;4.85;;;;;;;20.56;57.30;100987.70;1655175;84;21177;-59
2021/04/22 02:29:10;;;;;;;6.45;4.75;;;;;;;20.53;57.33;100987.77;1698196;82;21265;-59
2021/04/22 02:31:36;;;;;;;7.37;4.70;;;;;;;20.55;57.38;100986.88;1677116;84;21267;-59
2021/04/22 02:34:04;;;;;;;5.78;4.12;;;;;;;20.56;57.37;100991.84;1698573;83;23581;-59
2021/04/22 02:36:30;;;;;;;7.10;4.92;;;;;;;20.57;57.35;100992.92;1676969;84;21155;-59
2021/04/22 02:38:57;;;;;;;6.85;4.80;;;;;;;20.57;57.30;100990.16;1691136;83;21175;-59
2021/04/22 02:41:23;;;;;;;7.20;4.75;;;;;;;20.55;57.31;100988.27;1693319;83;21341;-59
2021/04/22 02:43:49;;;;;;;7.50;4.72;;;;;;;20.55;57.31;100984.68;1692596;83;21600;-60
2021/04/22 02:46:16;;;;;;;7.83;4.87;;;;;;;20.53;57.31;100986.39;1688089;83;21775;-59
2021/04/22 02:48:42;;;;;;;7.87;5.05;;;;;;;20.50;57.32;100986.99;1691678;83;21162;-59
2021/04/22 02:51:08;;;;;;;12.28;7.22;;;;;;;20.47;57.35;100989.83;1687793;83;21196;-59
2021/04/22 02:53:35;;;;;;;7.47;4.70;;;;;;;20.46;57.37;100992.89;1692308;83;21097;-59
2021/04/22 02:56:01;;;;;;;7.83;4.42;;;;;;;20.45;57.41;100991.28;1688989;83;21129;-59
2021/04/22 02:58:28;;;;;;;9.00;4.87;;;;;;;20.47;57.46;100998.12;1687787;83;21198;-59
2021/04/22 03:00:55;;;;;;;7.08;4.97;;;;;;;20.48;57.45;100990.66;1683556;83;21157;-58
2021/04/22 03:03:21;;;;;;;8.38;5.40;;;;;;;20.49;57.43;100991.73;1687235;83;21232;-59
2021/04/22 03:05:48;;;;;;;5.47;4.20;;;;;;;20.50;57.38;100993.91;1687693;83;21254;-59
2021/04/22 03:08:15;;;;;;;7.37;4.97;;;;;;;20.49;57.36;100993.67;1686785;83;21199;-58
2021/04/22 03:10:42;;;;;;;7.72;5.03;;;;;;;20.48;57.37;100988.71;1689869;83;22023;-59
2021/04/22 03:13:09;;;;;;;7.08;4.78;;;;;;;20.47;57.40;100993.98;1686597;83;21044;-59
2021/04/22 03:15:35;;;;;;;9.80;5.22;;;;;;;20.45;57.42;100996.81;1689890;83;21490;-58
2021/04/22 03:18:03;;;;;;;8.55;5.67;;;;;;;20.43;57.46;100997.67;1690775;83;21238;-58
2021/04/22 03:20:29;;;;;;;6.72;5.22;;;;;;;20.41;57.49;101003.50;1689961;83;21254;-59
2021/04/22 03:22:56;;;;;;;8.20;4.85;;;;;;;20.40;57.53;100999.13;1690897;83;21651;-58
2021/04/22 03:25:24;;;;;;;6.95;4.53;;;;;;;20.41;57.56;101004.09;1693951;83;21145;-59
2021/04/22 03:27:51;;;;;;;6.53;4.60;;;;;;;20.41;57.57;101000.73;1689623;83;21252;-59
2021/04/22 03:30:19;;;;;;;8.40;5.05;;;;;;;20.44;57.56;100996.55;1686804;83;21612;-58
2021/04/22 03:32:46;;;;;;;5.92;4.65;;;;;;;20.45;57.53;101001.75;1682851;83;21223;-60
2021/04/22 03:35:13;;;;;;;7.08;4.83;;;;;;;20.45;57.49;100999.58;1659306;85;21179;-58
2021/04/22 03:37:40;;;;;;;9.80;4.70;;;;;;;20.42;57.47;101002.38;1673043;84;21524;-59
2021/04/22 03:40:09;;;;;;;5.53;4.40;;;;;;;20.41;57.48;100999.36;1655022;85;21564;-59
2021/04/22 03:42:35;;;;;;;6.05;4.80;;;;;;;20.39;57.47;101007.72;1651791;85;21580;-58
2021/04/22 03:45:04;;;;;;;6.28;4.78;;;;;;;20.38;57.51;101011.04;1692492;83;21208;-59
2021/04/22 03:47:31;;;;;;;5.45;3.98;;;;;;;20.35;57.53;101016.37;1655709;85;21221;-59
2021/04/22 03:49:57;;;;;;;7.87;4.83;;;;;;;20.34;57.58;101019.70;1680847;83;21206;-60
2021/04/22 03:52:23;;;;;;;6.55;4.40;;;;;;;20.36;57.61;101023.55;1676564;83;21266;-59
2021/04/22 03:54:50;;;;;;;6.15;4.58;;;;;;;20.37;57.62;101025.98;1680078;84;21260;-59
2021/04/22 03:57:17;;;;;;;7.30;4.50;;;;;;;20.39;57.56;101030.64;1680149;83;21145;-59
2021/04/22 03:59:43;;;;;;;8.03;4.80;;;;;;;20.40;57.56;101029.52;1675167;83;21191;-59
2021/04/22 04:02:10;;;;;;;7.78;5.12;;;;;;;20.40;57.53;101027.33;1682532;83;21197;-59
2021/04/22 04:04:36;;;;;;;6.12;4.78;;;;;;;20.40;57.55;101032.29;1681115;83;21189;-59
2021/04/22 04:07:03;;;;;;;5.60;4.35;;;;;;;20.40;57.58;101037.00;1680689;84;21125;-61
2021/04/22 04:09:29;;;;;;;5.85;4.03;;;;;;;20.45;57.59;101038.27;1680480;83;21187;-59
2021/04/22 04:11:55;;;;;;;4.47;3.42;;;;;;;20.52;57.70;101031.73;1680385;83;21213;-59
2021/04/22 04:14:22;;;;;;;6.05;4.17;;;;;;;20.57;57.82;101033.01;1677430;83;21137;-59
2021/04/22 04:16:48;;;;;;;8.35;3.62;;;;;;;20.65;57.88;101037.80;1680001;83;21161;-59
2021/04/22 04:19:14;;;;;;;4.45;3.45;;;;;;;20.74;57.94;101048.92;1677828;83;21182;-59
2021/04/22 04:21:41;;;;;;;4.62;3.65;;;;;;;20.80;57.90;101052.62;1682971;84;21161;-59
2021/04/22 04:24:09;;;;;;;5.10;3.67;;;;;;;20.86;57.78;101050.00;1687803;83;23513;-59
2021/04/22 04:26:35;;;;;;;4.97;3.37;;;;;;;20.92;57.61;101055.64;1677562;83;21168;-61
2021/04/22 04:29:02;;;;;;;5.80;3.85;;;;;;;20.97;57.41;101051.38;1680292;83;21192;-59
2021/04/22 04:31:29;;;;;;;5.25;3.92;;;;;;;21.02;57.28;101060.68;1672826;83;21221;-59
2021/04/22 04:33:56;;;;;;;5.50;4.00;;;;;;;21.04;57.13;101059.25;1690137;83;21199;-59
2021/04/22 04:36:23;;;;;;;4.87;3.58;;;;;;;21.07;57.02;101057.80;1684533;83;22271;-59
2021/04/22 04:38:49;;;;;;;4.55;3.47;;;;;;;21.07;56.92;101059.18;1683791;83;21274;-59
2021/04/22 04:41:15;;;;;;;5.33;4.00;;;;;;;21.08;56.83;101061.64;1680276;83;21619;-59
2021/04/22 04:43:43;;;;;;;4.50;3.45;;;;;;;21.08;56.75;101056.11;1678269;84;22050;-59
2021/04/22 04:46:12;;;;;;;4.80;3.33;;;;;;;21.10;56.68;101064.08;1685343;83;21155;-59
2021/04/22 04:48:39;;;;;;;4.50;3.47;;;;;;;21.14;56.64;101067.87;1676238;83;22265;-59
2021/04/22 04:51:06;;;;;;;5.80;4.15;;;;;;;21.15;56.57;101076.44;1692200;83;21210;-59
2021/04/22 04:53:32;;;;;;;4.17;3.30;;;;;;;21.18;56.47;101071.64;1684754;83;21193;-59
2021/04/22 04:55:59;;;;;;;5.85;4.08;;;;;;;21.19;56.42;101082.41;1693191;83;21224;-59
2021/04/22 04:58:25;;;;;;;5.75;4.00;;;;;;;21.20;56.38;101070.22;1689752;83;21205;-59
2021/04/22 05:00:52;;;;;;;6.15;4.67;;;;;;;21.22;56.39;101071.27;1690272;83;21199;-59
2021/04/22 05:03:18;;;;;;;7.33;5.03;;;;;;;21.21;56.39;101070.48;1684488;83;21222;-59
2021/04/22 05:05:45;;;;;;;8.50;4.87;;;;;;;21.24;56.41;101078.70;1682218;83;21189;-59
2021/04/22 05:08:11;;;;;;;6.85;4.70;;;;;;;21.25;56.41;101076.20;1683621;84;21169;-61
2021/04/22 05:10:38;;;;;;;4.92;3.80;;;;;;;21.25;56.41;101071.48;1691205;83;21182;-59
2021/04/22 05:13:04;;;;;;;5.17;3.15;;;;;;;21.25;56.40;101071.48;1684968;83;21544;-59
2021/04/22 05:15:30;;;;;;;4.30;3.30;;;;;;;21.28;56.39;101072.78;1681707;83;21582;-59
2021/04/22 05:17:57;;;;;;;5.25;3.72;;;;;;;21.29;56.35;101077.19;1681845;84;21212;-59
2021/04/22 05:20:23;;;;;;;5.47;3.77;;;;;;;21.33;56.31;101086.50;1673451;84;21256;-59
2021/04/22 05:22:50;;;;;;;5.55;3.60;;;;;;;21.34;56.27;101079.24;1677073;84;21666;-59
2021/04/22 05:25:16;;;;;;;4.50;3.58;;;;;;;21.35;56.24;101077.30;1684829;84;21603;-59
2021/04/22 05:27:43;;;;;;;5.45;3.65;;;;;;;21.36;56.20;101083.91;1686739;83;21166;-59
2021/04/22 05:30:11;;;;;;;5.55;3.60;;;;;;;21.37;56.18;101076.42;1687307;83;21625;-59
2021/04/22 05:32:37;;;;;;;4.58;3.72;;;;;;;21.38;56.14;101076.12;1684081;83;21224;-59
2021/04/22 05:35:06;;;;;;;7.05;3.83;;;;;;;21.40;56.13;101079.38;1689216;83;21169;-59
2021/04/22 05:37:32;;;;;;;6.30;3.98;;;;;;;21.40;56.13;101077.99;1688804;83;21318;-59
2021/04/22 05:39:59;;;;;;;7.22;4.33;;;;;;;21.43;56.14;101084.05;1686201;83;21600;-59
2021/04/22 05:42:26;;;;;;;6.05;3.55;;;;;;;21.43;56.15;101082.89;1683025;83;21242;-59
2021/04/22 05:44:52;;;;;;;4.30;3.12;;;;;;;21.46;56.14;101088.37;1679505;83;21203;-59
2021/04/22 05:47:18;;;;;;;4.83;3.55;;;;;;;21.49;56.13;101092.45;1681322;83;21247;-59
2021/04/22 05:49:45;;;;;;;4.78;3.65;;;;;;;21.51;56.15;101095.73;1693238;83;22103;-60
2021/04/22 05:52:11;;;;;;;5.00;3.87;;;;;;;21.51;56.11;101097.94;1692677;83;21151;-59
2021/04/22 05:54:38;;;;;;;6.03;3.98;;;;;;;21.52;56.12;101098.16;1689040;83;21207;-59
2021/04/22 05:57:05;;;;;;;7.47;4.83;;;;;;;21.52;56.13;101095.39;1692657;83;21232;-59
2021/04/22 05:59:32;;;;;;;5.05;3.77;;;;;;;21.52;56.20;101098.73;1682372;83;21271;-59
2021/04/22 06:01:58;;;;;;;4.62;3.00;;;;;;;21.56;56.28;101102.50;1694769;83;22103;-59
2021/04/22 06:04:25;;;;;;;4.20;3.05;;;;;;;21.58;56.37;101108.55;1694325;83;21294;-59
2021/04/22 06:06:51;;;;;;;4.60;3.45;;;;;;;21.61;56.48;101112.06;1695946;83;21204;-59
2021/04/22 06:09:18;;;;;;;6.12;3.85;;;;;;;21.61;56.53;101103.75;1694363;83;21215;-59
2021/04/22 06:11:44;;;;;;;5.75;3.72;;;;;;;21.62;56.55;101107.59;1691449;83;21124;-59
2021/04/22 06:14:10;;;;;;;6.55;3.62;;;;;;;21.65;56.52;101106.14;1691911;83;22187;-59
2021/04/22 06:16:37;;;;;;;4.15;3.42;;;;;;;21.66;56.44;101113.31;1681945;83;21649;-59
2021/04/22 06:19:05;;;;;;;4.37;3.35;;;;;;;21.67;56.31;101116.34;1682977;83;21173;-59
2021/04/22 06:21:32;;;;;;;5.92;4.03;;;;;;;21.66;56.25;101107.78;1663324;84;21240;-60
2021/04/22 06:23:58;;;;;;;6.78;3.58;;;;;;;21.65;56.18;101106.95;1657932;84;21448;-59
2021/04/22 06:26:25;;;;;;;5.85;3.62;;;;;;;21.64;56.09;101110.06;1696294;83;21227;-59
2021/04/22 06:28:51;;;;;;;4.87;3.30;;;;;;;21.61;56.03;101103.19;1698225;83;21193;-59
2021/04/22 06:31:18;;;;;;;6.55;4.50;;;;;;;21.59;56.00;101104.09;1704234;83;21151;-59
2021/04/22 06:33:45;;;;;;;5.40;4.12;;;;;;;21.56;55.98;101108.85;1708881;83;21190;-59
2021/04/22 06:36:12;;;;;;;7.10;3.50;;;;;;;21.53;55.93;101108.11;1699579;83;21545;-59
2021/04/22 06:38:39;;;;;;;5.65;3.90;;;;;;;21.51;55.96;101109.58;1694915;82;21650;-59
2021/04/22 06:41:05;;;;;;;5.05;3.40;;;;;;;21.49;55.95;101104.91;1697106;83;21917;-60
2021/04/22 06:43:32;;;;;;;5.28;3.25;;;;;;;21.47;55.94;101108.58;1702197;83;21208;-59
2021/04/22 06:45:59;;;;;;;4.42;3.50;;;;;;;21.47;55.93;101112.73;1699385;83;37457;-60
2021/04/22 06:48:26;;;;;;;6.92;3.60;;;;;;;21.45;55.91;101108.06;1700976;83;21234;-60
2021/04/22 06:50:52;;;;;;;4.72;3.67;;;;;;;21.45;55.91;101109.44;1698278;83;22112;-59
2021/04/22 06:53:19;;;;;;;5.87;3.67;;;;;;;21.41;55.88;101110.08;1707081;83;21262;-60
2021/04/22 06:55:45;;;;;;;6.03;3.50;;;;;;;21.39;55.88;101118.43;1696941;83;21147;-60
2021/04/22 06:58:12;;;;;;;4.80;3.87;;;;;;;21.36;55.88;101121.28;1700152;83;21162;-60
2021/04/22 07:00:40;;;;;;;5.95;3.72;;;;;;;21.34;55.88;101115.81;1693757;83;21254;-60
2021/04/22 07:03:07;;;;;;;4.80;3.50;;;;;;;21.31;55.90;101125.55;1700904;83;21196;-60
2021/04/22 07:05:35;;;;;;;5.62;3.58;;;;;;;21.28;55.92;101126.19;1703590;83;21900;-60
2021/04/22 07:08:02;;;;;;;5.03;3.40;;;;;;;21.25;55.95;101121.85;1702366;83;21152;-60
2021/04/22 07:10:29;;;;;;;4.37;3.35;;;;;;;21.22;55.98;101121.89;1692426;83;21218;-59
2021/04/22 07:12:56;;;;;;;6.62;3.92;;;;;;;21.22;56.03;101124.66;1700580;83;21226;-60
2021/04/22 07:15:22;;;;;;;5.60;3.80;;;;;;;21.22;56.03;101123.28;1705767;83;22164;-60
2021/04/22 07:17:50;;;;;;;4.75;2.80;;;;;;;21.20;56.04;101124.17;1692168;83;21142;-61
2021/04/22 07:20:20;;;;;;;4.22;3.52;;;;;;;21.19;56.05;101131.39;1699120;83;21470;-60
2021/04/22 07:22:46;;;;;;;7.05;3.60;;;;;;;21.18;56.06;101135.29;1671959;85;21211;-60
2021/04/22 07:25:14;;;;;;;3.92;3.50;;;;;;;21.15;56.06;101129.83;1669704;85;22218;-60
2021/04/22 07:27:41;;;;;;;5.30;3.45;;;;;;;21.13;56.09;101129.30;1696166;83;21216;-59
2021/04/22 07:30:08;;;;;;;5.35;3.60;;;;;;;21.11;56.11;101130.73;1694989;82;21207;-60
2021/04/22 07:32:35;;;;;;;5.10;3.60;;;;;;;21.09;56.14;101133.01;1694166;83;21833;-60
2021/04/22 07:35:02;;;;;;;4.67;3.27;;;;;;;21.08;56.15;101134.95;1691044;83;21198;-60
2021/04/22 07:37:28;;;;;;;3.80;3.20;;;;;;;21.06;56.21;101129.46;1687759;83;21192;-59
2021/04/22 07:39:55;;;;;;;4.65;3.27;;;;;;;21.07;56.21;101131.11;1695974;83;21189;-60
2021/04/22 07:42:21;;;;;;;5.05;3.45;;;;;;;21.08;56.20;101132.75;1690255;83;21612;-60
2021/04/22 07:44:48;;;;;;;4.78;3.40;;;;;;;21.07;56.19;101134.70;1690687;83;21185;-59
2021/04/22 07:47:17;;;;;;;5.05;3.45;;;;;;;21.07;56.16;101131.11;1690553;82;21245;-60
2021/04/22 07:49:47;;;;;;;4.40;3.35;;;;;;;21.05;56.15;101135.56;1689980;83;21658;-60
2021/04/22 07:52:15;;;;;;;4.08;3.02;;;;;;;21.05;56.15;101134.77;1689948;83;23277;-59
2021/04/22 07:54:42;;;;;;;4.37;3.65;;;;;;;21.04;56.16;101134.51;1686947;83;21273;-59
2021/04/22 07:57:09;;;;;;;5.85;4.05;;;;;;;21.02;56.18;101134.81;1693641;83;21224;-60
2021/04/22 07:59:36;;;;;;;5.50;3.72;;;;;;;21.01;56.17;101130.96;1691888;83;21204;-60
2021/04/22 08:02:02;;;;;;;4.40;3.08;;;;;;;20.99;56.18;101136.83;1692199;83;21221;-60
2021/04/22 08:04:28;;;;;;;5.33;3.67;;;;;;;20.97;56.21;101137.12;1696993;83;21231;-60
2021/04/22 08:06:55;;;;;;;5.22;3.42;;;;;;;20.98;56.21;101131.85;1689771;83;21177;-60
2021/04/22 08:09:21;;;;;;;4.87;3.50;;;;;;;20.99;56.22;101134.06;1692073;83;21181;-60
2021/04/22 08:11:48;;;;;;;5.47;3.58;;;;;;;21.00;56.20;101133.50;1688584;83;21211;-60
2021/04/22 08:14:14;;;;;;;4.05;3.22;;;;;;;21.00;56.18;101137.09;1692793;83;21208;-59
2021/04/22 08:16:41;;;;;;;5.15;3.37;;;;;;;21.01;56.16;101135.94;1686183;83;21634;-59
2021/04/22 08:19:07;;;;;;;3.77;3.20;;;;;;;21.00;56.15;101139.85;1691833;83;21204;-60
2021/04/22 08:21:34;;;;;;;4.10;3.12;;;;;;;20.98;56.14;101139.33;1689652;83;21177;-60
2021/04/22 08:24:02;;;;;;;4.75;3.70;;;;;;;20.97;56.15;101137.69;1690728;83;21473;-60
2021/04/22 08:26:29;;;;;;;3.92;3.33;;;;;;;20.96;56.14;101134.69;1689206;83;21228;-60
2021/04/22 08:28:56;;;;;;;6.58;3.55;;;;;;;20.94;56.14;101139.14;1686183;83;21248;-60
2021/04/22 08:31:24;;;;;;;4.58;3.58;;;;;;;20.93;56.16;101136.67;1693332;83;21184;-61
2021/04/22 08:33:53;;;;;;;4.20;3.75;;;;;;;20.94;56.18;101138.32;1691462;83;21197;-60
2021/04/22 08:36:21;;;;;;;4.03;3.10;;;;;;;20.93;56.17;101130.58;1695230;83;21220;-60
2021/04/22 08:38:49;;;;;;;6.00;3.40;;;;;;;20.95;56.16;101136.64;1698390;83;21196;-60
2021/04/22 08:43:56;;;;;;;4.10;3.30;;;;;;;21.01;56.12;101135.11;1859023;75;22703;-60
2021/04/22 08:46:23;;;;;;;4.40;3.20;;;;;;;20.96;56.08;101130.55;1833268;77;21540;-59
2021/04/22 08:48:51;;;;;;;4.65;3.37;;;;;;;20.97;56.08;101126.62;1829832;77;21090;-60
2021/04/22 08:51:17;;;;;;;4.42;2.62;;;;;;;20.97;56.06;101131.59;1834501;77;21213;-59
2021/04/22 08:53:45;;;;;;;3.50;2.90;;;;;;;20.99;56.05;101134.06;1835109;75;21019;-59
2021/04/22 08:56:12;;;;;;;4.12;2.60;;;;;;;21.01;56.02;101131.78;1832690;77;21026;-59
2021/04/22 08:58:38;;;;;;;3.55;2.70;;;;;;;21.03;55.98;101131.48;1837311;77;21161;-59
2021/04/22 09:01:09;;;;;;;3.33;2.50;;;;;;;21.06;55.95;101127.52;1834722;77;23516;-59
2021/04/22 09:03:37;;;;;;;3.70;2.52;;;;;;;21.09;55.91;101125.50;1829866;77;21202;-59
2021/04/22 09:06:04;;;;;;;3.40;2.47;;;;;;;21.14;55.86;101124.59;1828841;77;21090;-59
2021/04/22 09:08:38;;;;;;;2.90;2.12;;;;;;;21.19;55.77;101125.30;1834044;77;21304;-60
2021/04/22 09:11:05;;;;;;;3.30;2.47;;;;;;;21.23;55.71;101124.10;1801848;78;21549;-59
2021/04/22 09:13:34;;;;;;;3.05;2.45;;;;;;;21.26;55.64;101129.03;1778492;80;21643;-60
2021/04/22 09:16:10;;;;;;;2.75;2.30;;;;;;;21.29;55.58;101122.86;1779351;79;21216;-59
2021/04/22 09:18:46;;;;;;;2.90;2.08;;;;;;;21.32;55.52;101122.22;1778728;79;21162;-59
2021/04/22 09:21:30;;;;;;;3.47;2.50;;;;;;;21.33;55.43;101129.40;1775464;79;21069;-58
2021/04/22 09:24:16;;;;;;;3.87;2.50;;;;;;;21.35;55.36;101125.73;1780037;79;21272;-59
2021/04/22 09:27:03;;;;;;;4.05;2.62;;;;;;;21.35;55.31;101119.63;1768542;79;21204;-59
2021/04/22 09:29:44;;;;;;;2.80;2.02;;;;;;;21.36;55.28;101128.76;1776811;79;21628;-59
2021/04/22 09:32:27;;;;;;;2.85;2.37;;;;;;;21.35;55.23;101126.55;1783682;79;21600;-59
2021/04/22 09:35:00;;;;;;;3.47;2.72;;;;;;;21.36;55.21;101120.45;1771936;79;21524;-59
2021/04/22 09:37:43;;;;;;;3.87;2.37;;;;;;;21.37;55.19;101120.15;1777268;79;21215;-59
2021/04/22 09:40:33;;;;;;;3.00;2.05;;;;;;;21.39;55.14;101114.28;1780222;79;21205;-59
2021/04/22 09:43:03;;;;;;;3.27;2.35;;;;;;;21.41;55.10;101109.27;1775553;79;21616;-60
2021/04/22 09:45:31;;;;;;;4.28;2.50;;;;;;;21.43;55.03;101116.66;1773681;79;21377;-59
2021/04/22 09:47:58;;;;;;;4.22;2.58;;;;;;;21.43;55.02;101104.80;1771964;79;21075;-59
2021/04/22 09:50:28;;;;;;;3.62;2.60;;;;;;;21.43;54.98;101095.91;1773553;79;21185;-59
2021/04/22 09:52:57;;;;;;;2.95;2.50;;;;;;;21.43;54.96;101100.88;1775052;78;21665;-59
2021/04/22 09:55:29;;;;;;;3.10;2.37;;;;;;;21.43;54.94;101101.44;1775593;80;21282;-59
2021/04/22 09:57:56;;;;;;;3.65;2.62;;;;;;;21.42;54.91;101097.06;1767590;80;21150;-59
2021/04/22 10:00:28;;;;;;;4.72;2.83;;;;;;;21.43;54.90;101096.73;1766681;79;21170;-59
2021/04/22 10:02:57;;;;;;;2.98;2.10;;;;;;;21.41;54.89;101086.55;1771991;79;21165;-59
2021/04/22 10:05:32;;;;;;;3.35;2.45;;;;;;;21.43;54.89;101087.60;1767808;79;21518;-59
2021/04/22 10:08:06;;;;;;;3.22;2.30;;;;;;;21.45;54.86;101090.06;1766733;80;21246;-58
2021/04/22 10:10:33;;;;;;;4.03;2.65;;;;;;;21.47;54.82;101080.89;1779032;79;21238;-59
2021/04/22 10:13:04;;;;;;;3.12;2.22;;;;;;;21.48;54.78;101084.70;1777471;79;21189;-59
2021/04/22 10:15:32;;;;;;;3.72;2.62;;;;;;;21.51;54.72;101084.09;1779757;79;21448;-58
2021/04/22 10:18:07;;;;;;;4.20;2.42;;;;;;;21.51;54.70;101074.41;1785991;79;21194;-59
2021/04/22 10:20:37;;;;;;;5.03;2.50;;;;;;;21.52;54.68;101073.25;1802750;79;21145;-59
2021/04/22 10:23:05;;;;;;;3.20;2.50;;;;;;;21.53;54.63;101076.27;1774083;79;21596;-59
2021/04/22 10:25:35;;;;;;;4.30;3.00;;;;;;;21.55;54.60;101074.02;1785613;79;21201;-59
2021/04/22 10:28:13;;;;;;;2.72;2.17;;;;;;;21.56;54.56;101081.17;1770945;79;21173;-59
2021/04/22 10:30:43;;;;;;;3.77;2.67;;;;;;;21.55;54.54;101078.17;1781718;79;21165;-59
2021/04/22 10:33:10;;;;;;;3.43;2.87;;;;;;;21.56;54.52;101074.25;1768926;79;21189;-59
2021/04/22 10:35:40;;;;;;;3.65;3.10;;;;;;;21.57;54.49;101071.73;1779572;79;21462;-59
2021/04/22 10:38:07;;;;;;;3.87;2.92;;;;;;;21.59;54.49;101064.51;1779450;79;21505;-58
2021/04/22 10:40:40;;;;;;;4.58;2.80;;;;;;;21.61;54.46;101064.42;1769192;79;21504;-59
2021/04/22 10:43:08;;;;;;;4.40;2.65;;;;;;;21.65;54.44;101065.42;1766981;79;21681;-59
2021/04/22 10:45:37;;;;;;;5.12;3.37;;;;;;;21.68;54.38;101067.58;1778291;79;21221;-58
2021/04/22 10:48:05;;;;;;;3.17;2.50;;;;;;;21.70;54.35;101068.06;1768813;79;21678;-59
2021/04/22 10:50:40;;;;;;;5.37;2.80;;;;;;;21.72;54.28;101069.95;1772744;79;21198;-58
2021/04/22 10:53:10;;;;;;;4.55;3.10;;;;;;;21.74;54.26;101062.69;1770181;79;21227;-59
2021/04/22 10:55:39;;;;;;;3.50;2.62;;;;;;;21.76;54.24;101061.26;1775397;79;21565;-59
2021/04/22 10:58:21;;;;;;;3.77;2.80;;;;;;;21.77;54.21;101051.79;1780654;79;21155;-58
2021/04/22 11:00:54;;;;;;;4.87;3.02;;;;;;;21.78;54.19;101057.58;1781203;79;21173;-59
2021/04/22 11:03:38;;;;;;;4.42;3.30;;;;;;;21.80;54.13;101053.13;1773531;79;21232;-59
2021/04/22 11:06:12;;;;;;;3.58;2.90;;;;;;;21.81;54.13;101051.39;1783864;79;21195;-59
2021/04/22 11:08:51;;;;;;;4.08;2.77;;;;;;;21.83;54.09;101051.09;1778942;79;23750;-58
2021/04/22 11:11:34;;;;;;;4.87;3.15;;;;;;;21.85;54.07;101048.23;1773255;79;21126;-58
2021/04/22 11:14:14;;;;;;;3.55;2.15;;;;;;;21.90;54.06;101049.25;1779107;79;21796;-59
2021/04/22 11:16:44;;;;;;;3.12;2.45;;;;;;;21.94;53.99;101050.28;1771414;79;21181;-58
2021/04/22 11:19:20;;;;;;;3.25;2.65;;;;;;;21.97;53.94;101045.47;1749650;79;21196;-59
2021/04/22 11:21:56;;;;;;;4.08;2.60;;;;;;;22.00;53.90;101046.20;1769713;79;22192;-59
2021/04/22 11:24:42;;;;;;;4.92;2.70;;;;;;;22.02;53.86;101041.99;1778480;80;21187;-59
2021/04/22 11:27:14;;;;;;;3.83;2.83;;;;;;;22.04;53.85;101036.94;1776927;80;21212;-59
2021/04/22 11:29:57;;;;;;;7.30;3.00;;;;;;;22.06;53.79;101033.28;1776048;80;21205;-59
2021/04/22 11:32:35;;;;;;;3.72;2.83;;;;;;;22.08;53.75;101030.17;1776065;80;21150;-59